Sarah Reed — WDC3151 — position and weather

sailwx.info

Track history (hours):
 
Tides and Currents Weather Stations Pressure Air Temp Water Temp Dewpoint Dewpoint Depression Visibility Wind Speed Wind Dir Waves Ship Positions

Sarah Reed

Owner: THE DUTRA GROUP, SAN RAFAEL, CA. More information available from US FCC via Universal Licensing System.

Last reported at 2017-Oct-19 18:00 UTC. Time now 2017-Oct-19 18:25 UTC.
Position N 38°08' W 122°31'.

Length 19 m; draft 3.3 m.

Type: Towing. MMSI: 367003250.

Date/timePositionNaut miles runAvg speedWind from/ knotsBaromVisibWave heightAir tempDewpointWater temp
2017-Oct-19 18:00N 38°08' W 122°31'4 4.1
2017-Oct-19 17:08N 38°06' W 122°27'1 5.0
2017-Oct-19 17:00N 38°06' W 122°27'2 4.0
2017-Oct-19 16:30N 38°04' W 122°26'3 5.3
2017-Oct-19 16:00N 38°02' W 122°26'3 5.2
2017-Oct-19 15:30N 37°59' W 122°26'3 4.8
2017-Oct-19 14:58N 37°56' W 122°26'2 4.8
2017-Oct-19 14:30N 37°54' W 122°25'2 4.3
2017-Oct-19 14:00N 37°52' W 122°24'2 4.6
2017-Oct-19 13:30N 37°50' W 122°22'1 2.1
2017-Oct-19 13:00N 37°50' W 122°21'0 0.1
2017-Oct-19 12:30N 37°50' W 122°21'0 0.0
2017-Oct-19 12:00N 37°50' W 122°21'0 0.2
2017-Oct-19 11:30N 37°50' W 122°21'1 2.6
2017-Oct-19 11:00N 37°51' W 122°23'3 6.9
2017-Oct-19 10:30N 37°54' W 122°25'4 8.2
2017-Oct-19 10:00N 37°58' W 122°26'4 7.3
2017-Oct-19 09:30N 38°01' W 122°26'3 6.6
2017-Oct-19 09:00N 38°05' W 122°26'3 6.0
2017-Oct-19 08:29N 38°07' W 122°29'2 4.4
2017-Oct-19 08:00N 38°08' W 122°31'2 4.3
2017-Oct-19 07:30N 38°10' W 122°32'2 4.3
2017-Oct-19 07:00N 38°12' W 122°33'2 4.5
2017-Oct-19 06:30N 38°13' W 122°36'1 1.1
2017-Oct-19 06:00N 38°13' W 122°36'0 0.0
2017-Oct-19 05:30N 38°13' W 122°36'0 0.0
2017-Oct-19 05:00N 38°13' W 122°36'0 0.0
2017-Oct-19 04:30N 38°13' W 122°36'0 0.0
2017-Oct-19 04:00N 38°13' W 122°36'0 0.0
2017-Oct-18 19:44N 38°13' W 122°36'0 0.0
2017-Oct-18 19:30N 38°13' W 122°36'1 1.4
2017-Oct-18 19:00N 38°13' W 122°36'2 3.7
2017-Oct-18 18:30N 38°12' W 122°34'2 3.5
2017-Oct-18 18:00N 38°11' W 122°32'2 3.5
2017-Oct-18 17:30N 38°09' W 122°32'3 5.0
2017-Oct-18 17:00N 38°07' W 122°30'2 4.3
2017-Oct-18 16:30N 38°06' W 122°27'2 4.2
2017-Oct-18 16:00N 38°05' W 122°26'2 4.3
2017-Oct-18 15:28N 38°02' W 122°26'3 5.3
2017-Oct-18 14:59N 37°60' W 122°26'5 4.7
2017-Oct-18 13:59N 37°55' W 122°25'2 4.3
2017-Oct-18 13:30N 37°53' W 122°24'2 4.3
2017-Oct-18 13:00N 37°51' W 122°23'2 4.6
2017-Oct-18 12:31N 37°50' W 122°21'0 0.0
2017-Oct-18 04:55N 37°50' W 122°21'0 0.0
2017-Oct-18 04:31N 37°50' W 122°21'0 0.0
2017-Oct-18 04:00N 37°50' W 122°21'3 6.3
2017-Oct-18 03:30N 37°52' W 122°23'4 7.6
2017-Oct-18 03:00N 37°56' W 122°25'4 7.5
2017-Oct-18 02:30N 37°59' W 122°27'0 0.1
2017-Oct-18 01:25N 37°59' W 122°27'0 0.0
2017-Oct-18 00:59N 37°59' W 122°27'0 0.0
2017-Oct-17 23:23N 37°59' W 122°27'2 3.9
2017-Oct-17 22:59N 37°60' W 122°25'510.0
2017-Oct-17 22:30N 38°03' W 122°20'4 9.0
2017-Oct-17 22:00N 38°04' W 122°15'4 8.7
2017-Oct-17 21:30N 38°08' W 122°17'4 7.0
2017-Oct-17 21:00N 38°12' W 122°19'2 4.1
2017-Oct-17 20:26N 38°14' W 122°18'1 0.1
2017-Oct-17 11:52N 38°15' W 122°17'2 4.5
2017-Oct-17 11:30N 38°14' W 122°18'2 4.1
2017-Oct-17 11:00N 38°12' W 122°19'2 3.7
2017-Oct-17 10:30N 38°10' W 122°18'3 4.9
2017-Oct-17 09:59N 38°07' W 122°17'1 1.9
2017-Oct-17 09:25N 38°06' W 122°16'1 1.5
2017-Oct-17 08:59N 38°06' W 122°16'2 4.4
2017-Oct-17 08:30N 38°04' W 122°16'2 3.1
2017-Oct-17 08:00N 38°05' W 122°15'3 5.4
2017-Oct-17 07:30N 38°07' W 122°17'3 5.4
2017-Oct-17 07:00N 38°10' W 122°18'2 4.4
2017-Oct-17 06:30N 38°12' W 122°19'4 0.2
2017-Oct-16 16:04N 38°15' W 122°17'0 1.2
2017-Oct-16 16:00N 38°15' W 122°17'0 0.0
2017-Oct-16 15:18N 38°15' W 122°17'0 0.0
2017-Oct-16 14:43N 38°15' W 122°17'0 0.0
2017-Oct-16 13:27N 38°15' W 122°17'0 0.0
2017-Oct-16 12:26N 38°15' W 122°17'0 0.0
2017-Oct-16 11:53N 38°15' W 122°17'0 0.0
2017-Oct-16 11:30N 38°15' W 122°17'0 0.0
2017-Oct-16 11:00N 38°15' W 122°17'0 0.0
2017-Oct-16 10:30N 38°15' W 122°17'0 0.0
2017-Oct-16 10:00N 38°15' W 122°17'0 0.0
2017-Oct-16 09:27N 38°15' W 122°17'0 0.0
2017-Oct-16 09:00N 38°15' W 122°17'0 0.0
2017-Oct-16 08:29N 38°15' W 122°17'0 0.0
2017-Oct-16 08:00N 38°15' W 122°17'0 0.0
2017-Oct-16 07:30N 38°15' W 122°17'0 0.0
2017-Oct-16 06:58N 38°15' W 122°17'0 0.0
2017-Oct-16 06:30N 38°15' W 122°17'0 0.0
2017-Oct-16 05:59N 38°15' W 122°17'0 0.0
2017-Oct-16 05:30N 38°15' W 122°17'0 0.0
2017-Oct-16 04:59N 38°15' W 122°17'0 0.0
2017-Oct-16 04:30N 38°15' W 122°17'0 0.0
2017-Oct-16 03:59N 38°15' W 122°17'0 0.0
2017-Oct-16 03:29N 38°15' W 122°17'0 0.0
2017-Oct-16 03:00N 38°15' W 122°17'0 0.0
2017-Oct-16 01:44N 38°15' W 122°17'1 3.1
2017-Oct-16 01:20N 38°14' W 122°17'1 3.9
2017-Oct-16 01:00N 38°13' W 122°19'2 3.5
2017-Oct-16 00:24N 38°11' W 122°19'2 4.7
2017-Oct-16 00:00N 38°10' W 122°18'3 5.3
2017-Oct-15 23:28N 38°07' W 122°17'1 1.7
2017-Oct-15 22:53N 38°06' W 122°16'3 8.9
2017-Oct-15 22:30N 38°09' W 122°18'4 6.1
2017-Oct-15 21:52N 38°13' W 122°19'3 1.9
2017-Oct-15 20:29N 38°15' W 122°17'0 0.0
2017-Oct-15 19:05N 38°15' W 122°17'0 0.0
2017-Oct-15 18:47N 38°15' W 122°17'0 0.0
2017-Oct-15 18:27N 38°15' W 122°17'0 0.0
2017-Oct-15 17:58N 38°15' W 122°17'0 0.0
2017-Oct-15 17:25N 38°15' W 122°17'0 0.0
2017-Oct-15 17:00N 38°15' W 122°17'0 0.0
2017-Oct-15 16:30N 38°15' W 122°17'0 0.0
2017-Oct-15 16:00N 38°15' W 122°17'0 0.0
2017-Oct-15 15:30N 38°15' W 122°17'0 0.0
2017-Oct-15 15:00N 38°15' W 122°17'0 0.0
2017-Oct-15 13:59N 38°15' W 122°17'0 0.0
2017-Oct-15 13:29N 38°15' W 122°17'0 0.0
2017-Oct-15 12:59N 38°15' W 122°17'0 0.0
2017-Oct-15 12:30N 38°15' W 122°17'0 0.0
2017-Oct-15 12:00N 38°15' W 122°17'0 0.0
2017-Oct-15 11:30N 38°15' W 122°17'0 0.0
2017-Oct-15 11:00N 38°15' W 122°17'0 0.0
2017-Oct-15 10:30N 38°15' W 122°17'0 0.0
2017-Oct-15 10:00N 38°15' W 122°17'0 0.0
2017-Oct-15 09:30N 38°15' W 122°17'0 0.0
2017-Oct-15 09:00N 38°15' W 122°17'0 0.0
2017-Oct-15 08:30N 38°15' W 122°17'0 0.0
2017-Oct-15 08:00N 38°15' W 122°17'0 0.0
2017-Oct-15 07:30N 38°15' W 122°17'0 0.0
2017-Oct-15 07:00N 38°15' W 122°17'0 0.0
2017-Oct-15 06:30N 38°15' W 122°17'0 0.0
2017-Oct-15 06:00N 38°15' W 122°17'0 0.0
2017-Oct-15 05:29N 38°15' W 122°17'0 0.0
2017-Oct-15 05:00N 38°15' W 122°17'0 0.0
2017-Oct-15 04:30N 38°15' W 122°17'0 0.0
2017-Oct-15 04:00N 38°15' W 122°17'0 0.0
2017-Oct-15 03:30N 38°15' W 122°17'0 0.0
2017-Oct-15 02:57N 38°15' W 122°17'0 0.0
2017-Oct-15 02:30N 38°15' W 122°17'0 0.0
2017-Oct-15 02:00N 38°15' W 122°17'0 0.0
2017-Oct-15 01:29N 38°15' W 122°17'0 0.0
2017-Oct-15 01:00N 38°15' W 122°17'0 0.0
2017-Oct-15 00:24N 38°15' W 122°17'1 3.6
2017-Oct-15 00:00N 38°14' W 122°18'2 3.8
2017-Oct-14 23:30N 38°12' W 122°19'2 4.1
2017-Oct-14 23:00N 38°10' W 122°18'3 5.4
2017-Oct-14 22:25N 38°07' W 122°17'2 5.4
2017-Oct-14 21:59N 38°05' W 122°15'2 4.7
2017-Oct-14 21:29N 38°04' W 122°13'6 0.6
2017-Oct-14 11:16N 38°03' W 122°05'1 5.3
2017-Oct-14 10:59N 38°02' W 122°07'2 5.1
2017-Oct-14 10:30N 38°03' W 122°10'2 4.7
2017-Oct-14 10:00N 38°04' W 122°13'2 4.5
2017-Oct-14 09:30N 38°05' W 122°15'1 1.8
2017-Oct-14 09:00N 38°06' W 122°16'0 0.5
2017-Oct-14 08:30N 38°06' W 122°16'2 3.5
2017-Oct-14 08:00N 38°04' W 122°16'2 4.3
2017-Oct-14 07:30N 38°03' W 122°18'3 5.1
2017-Oct-14 07:00N 38°02' W 122°21'3 5.1
2017-Oct-14 06:30N 38°00' W 122°24'3 5.1
2017-Oct-14 05:56N 37°58' W 122°26'2 5.2
2017-Oct-14 05:30N 37°56' W 122°26'3 6.0
2017-Oct-14 05:00N 37°53' W 122°24'4 7.4
2017-Oct-14 04:30N 37°50' W 122°22'3 5.3
2017-Oct-14 04:00N 37°48' W 122°20'2 3.0
2017-Oct-14 03:30N 37°49' W 122°19'0 0.0
2017-Oct-14 03:00N 37°49' W 122°19'1 1.0
2017-Oct-14 02:30N 37°49' W 122°19'1 2.3
2017-Oct-14 02:00N 37°48' W 122°20'0 0.0
2017-Oct-14 01:30N 37°48' W 122°20'0 0.0
2017-Oct-14 01:01N 37°48' W 122°20'0 0.0
2017-Oct-14 00:31N 37°48' W 122°20'0 0.0
2017-Oct-14 00:00N 37°48' W 122°20'0 0.0
2017-Oct-13 23:30N 37°48' W 122°20'0 0.1
2017-Oct-13 23:00N 37°48' W 122°20'0 0.0
2017-Oct-13 22:30N 37°48' W 122°20'0 0.0
2017-Oct-13 22:00N 37°48' W 122°20'0 0.0
2017-Oct-13 21:30N 37°48' W 122°20'1 1.2
2017-Oct-13 21:00N 37°48' W 122°20'2 3.6
2017-Oct-13 20:30N 37°49' W 122°19'0 0.1
2017-Oct-13 20:00N 37°49' W 122°18'2 4.1
2017-Oct-13 19:30N 37°49' W 122°21'1 2.2
2017-Oct-13 19:00N 37°50' W 122°21'0 0.0
2017-Oct-13 18:30N 37°50' W 122°21'0 0.0
2017-Oct-13 18:00N 37°50' W 122°21'0 0.1
2017-Oct-13 17:30N 37°50' W 122°21'0 0.0
2017-Oct-13 17:00N 37°50' W 122°21'0 0.0
2017-Oct-13 16:30N 37°50' W 122°21'0 0.0
2017-Oct-13 16:00N 37°50' W 122°21'0 0.1
2017-Oct-13 15:30N 37°50' W 122°21'0 0.0
2017-Oct-13 15:01N 37°50' W 122°21'0 0.0
2017-Oct-13 14:30N 37°50' W 122°21'0 0.1
2017-Oct-13 14:00N 37°50' W 122°21'0 0.0
2017-Oct-13 13:30N 37°50' W 122°21'0 0.0
2017-Oct-13 13:00N 37°50' W 122°21'0 0.0
2017-Oct-13 12:30N 37°50' W 122°21'0 0.1
2017-Oct-13 12:00N 37°50' W 122°21'0 0.0
2017-Oct-13 11:30N 37°50' W 122°21'0 0.1
2017-Oct-13 11:00N 37°50' W 122°21'0 0.0
2017-Oct-13 10:30N 37°50' W 122°21'0 0.0
2017-Oct-13 10:00N 37°50' W 122°21'0 0.0
2017-Oct-13 09:30N 37°50' W 122°21'0 0.1
2017-Oct-13 09:00N 37°50' W 122°21'0 0.1
2017-Oct-13 08:30N 37°50' W 122°21'0 0.2
2017-Oct-13 08:01N 37°50' W 122°21'0 0.0
2017-Oct-13 07:30N 37°50' W 122°21'0 0.0
2017-Oct-13 07:01N 37°50' W 122°21'0 0.0
2017-Oct-13 06:31N 37°50' W 122°21'0 0.0
2017-Oct-13 06:00N 37°50' W 122°21'0 0.1
2017-Oct-13 05:30N 37°50' W 122°21'0 0.1
2017-Oct-13 05:00N 37°50' W 122°21'0 0.1
2017-Oct-13 04:30N 37°50' W 122°21'0 0.0
2017-Oct-13 04:00N 37°50' W 122°21'0 0.0
2017-Oct-13 03:30N 37°50' W 122°21'0 0.5
2017-Oct-13 03:01N 37°50' W 122°21'3 5.5
2017-Oct-13 02:30N 37°47' W 122°20'1 1.1
2017-Oct-13 02:00N 37°47' W 122°20'3 6.6
2017-Oct-13 01:31N 37°50' W 122°21'0 0.4
2017-Oct-13 01:00N 37°50' W 122°21'0 0.1
2017-Oct-13 00:30N 37°50' W 122°21'0 0.0
2017-Oct-13 00:00N 37°50' W 122°21'0 0.0
2017-Oct-12 23:30N 37°50' W 122°21'0 0.0
2017-Oct-12 23:00N 37°50' W 122°21'0 0.0
2017-Oct-12 22:30N 37°50' W 122°21'0 0.0
2017-Oct-12 22:00N 37°50' W 122°21'0 0.0
2017-Oct-12 21:30N 37°50' W 122°21'0 0.0
2017-Oct-12 21:00N 37°50' W 122°21'0 0.0
2017-Oct-12 20:30N 37°50' W 122°21'0 0.0
2017-Oct-12 20:00N 37°50' W 122°21'0 0.0
2017-Oct-12 19:30N 37°50' W 122°21'0 0.1
2017-Oct-12 19:00N 37°50' W 122°21'0 0.1
2017-Oct-12 18:30N 37°50' W 122°21'0 0.1
2017-Oct-12 18:00N 37°50' W 122°21'0 0.0
2017-Oct-12 17:30N 37°50' W 122°21'0 0.1
2017-Oct-12 17:00N 37°50' W 122°21'0 0.6
2017-Oct-12 16:30N 37°50' W 122°21'3 5.9
2017-Oct-12 16:01N 37°47' W 122°22'0 0.8
2017-Oct-12 15:30N 37°46' W 122°22'0 0.3
2017-Oct-12 15:01N 37°46' W 122°22'0 0.2
2017-Oct-12 14:30N 37°46' W 122°21'1 2.8
2017-Oct-12 14:00N 37°46' W 122°20'1 2.1
2017-Oct-12 13:31N 37°46' W 122°21'0 0.7
2017-Oct-12 13:01N 37°46' W 122°21'0 0.0
2017-Oct-12 12:30N 37°46' W 122°21'0 0.0
2017-Oct-12 12:00N 37°46' W 122°21'1 2.9
2017-Oct-12 11:30N 37°46' W 122°20'1 1.2
2017-Oct-12 11:00N 37°46' W 122°20'1 1.8
2017-Oct-12 10:30N 37°46' W 122°21'0 0.0
2017-Oct-12 10:00N 37°46' W 122°21'0 0.1
2017-Oct-12 09:31N 37°46' W 122°21'0 0.9
2017-Oct-12 09:01N 37°46' W 122°21'1 2.1
2017-Oct-12 08:30N 37°46' W 122°20'2 3.0
2017-Oct-12 08:01N 37°46' W 122°22'0 0.1
2017-Oct-12 07:31N 37°46' W 122°22'0 0.1
2017-Oct-12 07:01N 37°46' W 122°22'0 0.0
2017-Oct-12 06:31N 37°46' W 122°22'0 0.1
2017-Oct-12 06:00N 37°46' W 122°22'1 3.0
2017-Oct-12 05:31N 37°46' W 122°20'0 0.1
2017-Oct-12 05:01N 37°46' W 122°20'0 0.0
2017-Oct-12 04:31N 37°46' W 122°20'0 0.0
2017-Oct-12 04:01N 37°46' W 122°20'0 0.0
2017-Oct-12 03:31N 37°46' W 122°20'0 0.0
2017-Oct-12 03:00N 37°46' W 122°20'0 0.0
2017-Oct-12 02:31N 37°46' W 122°20'0 0.0
2017-Oct-12 02:01N 37°46' W 122°20'0 0.1
2017-Oct-12 01:31N 37°46' W 122°20'0 0.0
2017-Oct-12 01:01N 37°46' W 122°20'0 0.1
2017-Oct-12 00:30N 37°46' W 122°20'0 0.2
2017-Oct-12 00:00N 37°46' W 122°20'0 0.0
2017-Oct-11 23:30N 37°46' W 122°20'0 0.0
2017-Oct-11 23:01N 37°46' W 122°20'0 0.1
2017-Oct-11 22:30N 37°46' W 122°20'0 0.0
2017-Oct-11 22:00N 37°46' W 122°20'3 5.6
2017-Oct-11 21:31N 37°49' W 122°19'0 1.0
2017-Oct-11 21:00N 37°49' W 122°19'3 5.6
2017-Oct-11 20:31N 37°48' W 122°22'2 3.5
2017-Oct-11 20:00N 37°49' W 122°24'0 0.8
2017-Oct-11 19:30N 37°48' W 122°24'4 7.2
2017-Oct-11 19:01N 37°49' W 122°19'1 1.1
2017-Oct-11 18:31N 37°49' W 122°19'3 6.0
2017-Oct-11 18:00N 37°48' W 122°22'1 3.0
2017-Oct-11 17:30N 37°49' W 122°24'0 0.0
2017-Oct-11 17:00N 37°49' W 122°24'6 0.4
2017-Oct-11 00:00N 37°54' W 122°22'1 3.0
2017-Oct-10 23:30N 37°54' W 122°24'3 6.9
2017-Oct-10 23:00N 37°51' W 122°22'3 5.6
2017-Oct-10 22:30N 37°49' W 122°20'1 2.4
2017-Oct-10 22:00N 37°49' W 122°19'1 3.0
2017-Oct-10 21:30N 37°48' W 122°19'3 5.4
2017-Oct-10 21:00N 37°47' W 122°16'1 1.8
2017-Oct-10 20:30N 37°47' W 122°15'3 6.1
2017-Oct-10 20:00N 37°48' W 122°18'3 5.7
2017-Oct-10 19:30N 37°50' W 122°21'0 0.0
2017-Oct-10 19:00N 37°50' W 122°21'0 0.0
2017-Oct-10 18:30N 37°50' W 122°21'0 0.0
2017-Oct-10 18:00N 37°50' W 122°21'0 0.0
2017-Oct-10 17:30N 37°50' W 122°21'0 0.1
2017-Oct-10 17:00N 37°50' W 122°21'1 2.3
2017-Oct-10 16:30N 37°50' W 122°22'3 6.3
2017-Oct-10 16:00N 37°53' W 122°24'4 7.7
2017-Oct-10 15:30N 37°57' W 122°26'4 7.7
2017-Oct-10 15:00N 38°01' W 122°26'6 5.7
2017-Oct-10 13:52N 38°07' W 122°28'2 4.8
2017-Oct-10 13:30N 38°07' W 122°31'3 5.3
2017-Oct-10 13:00N 38°09' W 122°33'2 3.9
2017-Oct-10 12:30N 38°11' W 122°33'2 3.6
2017-Oct-10 12:00N 38°12' W 122°35'2 3.3
2017-Oct-10 11:30N 38°13' W 122°36'0 0.2
2017-Oct-10 11:00N 38°13' W 122°36'0 0.0
2017-Oct-10 08:13N 38°13' W 122°36'0 0.0
2017-Oct-10 07:42N 38°13' W 122°36'0 0.0
2017-Oct-10 07:27N 38°13' W 122°36'0 0.0
2017-Oct-10 06:58N 38°13' W 122°36'0 0.0
2017-Oct-10 06:25N 38°13' W 122°36'0 0.0
2017-Oct-10 05:20N 38°13' W 122°36'0 0.0
2017-Oct-10 05:00N 38°13' W 122°36'0 0.0
2017-Oct-10 04:30N 38°13' W 122°36'0 0.0
2017-Oct-10 04:00N 38°13' W 122°36'0 0.0
2017-Oct-10 03:30N 38°13' W 122°36'0 0.0
2017-Oct-10 03:00N 38°13' W 122°36'0 0.0
2017-Oct-10 02:30N 38°13' W 122°36'0 0.0
2017-Oct-10 02:00N 38°13' W 122°36'0 0.0
2017-Oct-10 01:30N 38°13' W 122°36'0 0.0
2017-Oct-10 01:00N 38°13' W 122°36'0 0.0
2017-Oct-10 00:30N 38°13' W 122°36'0 0.0
2017-Oct-10 00:00N 38°13' W 122°36'0 0.5
2017-Oct-09 23:30N 38°13' W 122°36'1 2.9
2017-Oct-09 23:00N 38°12' W 122°35'2 3.3
2017-Oct-09 22:30N 38°12' W 122°33'2 3.6
2017-Oct-09 22:00N 38°10' W 122°32'2 4.3
2017-Oct-09 21:29N 38°08' W 122°31'3 4.1
2017-Oct-09 20:39N 38°06' W 122°27'1 4.7
2017-Oct-09 20:30N 38°06' W 122°27'2 4.5
2017-Oct-09 20:00N 38°03' W 122°26'3 5.2
2017-Oct-09 19:30N 38°01' W 122°26'2 2.8
2017-Oct-09 18:54N 37°59' W 122°27'0 0.0
2017-Oct-09 18:30N 37°59' W 122°27'0 0.0
2017-Oct-09 18:00N 37°59' W 122°27'  
Track history (hours):
 
Tides and Currents Weather Stations Pressure Air Temp Water Temp Dewpoint Dewpoint Depression Visibility Wind Speed Wind Dir Waves Ship Positions

Sarah Reed

Owner: THE DUTRA GROUP, SAN RAFAEL, CA. More information available from US FCC via Universal Licensing System.

Last reported at 2017-Oct-19 18:00 UTC. Time now 2017-Oct-19 18:25 UTC.
Position N 38°08' W 122°31'.

Length 19 m; draft 3.3 m.

Type: Towing. MMSI: 367003250.

Date/timePositionNaut miles runAvg speedWind from/ knotsBaromVisibWave heightAir tempDewpointWater temp
2017-Oct-19 18:00N 38°08' W 122°31'4 4.1
2017-Oct-19 17:08N 38°06' W 122°27'1 5.0
2017-Oct-19 17:00N 38°06' W 122°27'2 4.0
2017-Oct-19 16:30N 38°04' W 122°26'3 5.3
2017-Oct-19 16:00N 38°02' W 122°26'3 5.2
2017-Oct-19 15:30N 37°59' W 122°26'3 4.8
2017-Oct-19 14:58N 37°56' W 122°26'2 4.8
2017-Oct-19 14:30N 37°54' W 122°25'2 4.3
2017-Oct-19 14:00N 37°52' W 122°24'2 4.6
2017-Oct-19 13:30N 37°50' W 122°22'1 2.1
2017-Oct-19 13:00N 37°50' W 122°21'0 0.1
2017-Oct-19 12:30N 37°50' W 122°21'0 0.0
2017-Oct-19 12:00N 37°50' W 122°21'0 0.2
2017-Oct-19 11:30N 37°50' W 122°21'1 2.6
2017-Oct-19 11:00N 37°51' W 122°23'3 6.9
2017-Oct-19 10:30N 37°54' W 122°25'4 8.2
2017-Oct-19 10:00N 37°58' W 122°26'4 7.3
2017-Oct-19 09:30N 38°01' W 122°26'3 6.6
2017-Oct-19 09:00N 38°05' W 122°26'3 6.0
2017-Oct-19 08:29N 38°07' W 122°29'2 4.4
2017-Oct-19 08:00N 38°08' W 122°31'2 4.3
2017-Oct-19 07:30N 38°10' W 122°32'2 4.3
2017-Oct-19 07:00N 38°12' W 122°33'2 4.5
2017-Oct-19 06:30N 38°13' W 122°36'1 1.1
2017-Oct-19 06:00N 38°13' W 122°36'0 0.0
2017-Oct-19 05:30N 38°13' W 122°36'0 0.0
2017-Oct-19 05:00N 38°13' W 122°36'0 0.0
2017-Oct-19 04:30N 38°13' W 122°36'0 0.0
2017-Oct-19 04:00N 38°13' W 122°36'0 0.0
2017-Oct-18 19:44N 38°13' W 122°36'0 0.0
2017-Oct-18 19:30N 38°13' W 122°36'1 1.4
2017-Oct-18 19:00N 38°13' W 122°36'2 3.7
2017-Oct-18 18:30N 38°12' W 122°34'2 3.5
2017-Oct-18 18:00N 38°11' W 122°32'2 3.5
2017-Oct-18 17:30N 38°09' W 122°32'3 5.0
2017-Oct-18 17:00N 38°07' W 122°30'2 4.3
2017-Oct-18 16:30N 38°06' W 122°27'2 4.2
2017-Oct-18 16:00N 38°05' W 122°26'2 4.3
2017-Oct-18 15:28N 38°02' W 122°26'3 5.3
2017-Oct-18 14:59N 37°60' W 122°26'5 4.7
2017-Oct-18 13:59N 37°55' W 122°25'2 4.3
2017-Oct-18 13:30N 37°53' W 122°24'2 4.3
2017-Oct-18 13:00N 37°51' W 122°23'2 4.6
2017-Oct-18 12:31N 37°50' W 122°21'0 0.0
2017-Oct-18 04:55N 37°50' W 122°21'0 0.0
2017-Oct-18 04:31N 37°50' W 122°21'0 0.0
2017-Oct-18 04:00N 37°50' W 122°21'3 6.3
2017-Oct-18 03:30N 37°52' W 122°23'4 7.6
2017-Oct-18 03:00N 37°56' W 122°25'4 7.5
2017-Oct-18 02:30N 37°59' W 122°27'0 0.1
2017-Oct-18 01:25N 37°59' W 122°27'0 0.0
2017-Oct-18 00:59N 37°59' W 122°27'0 0.0
2017-Oct-17 23:23N 37°59' W 122°27'2 3.9
2017-Oct-17 22:59N 37°60' W 122°25'510.0
2017-Oct-17 22:30N 38°03' W 122°20'4 9.0
2017-Oct-17 22:00N 38°04' W 122°15'4 8.7
2017-Oct-17 21:30N 38°08' W 122°17'4 7.0
2017-Oct-17 21:00N 38°12' W 122°19'2 4.1
2017-Oct-17 20:26N 38°14' W 122°18'1 0.1
2017-Oct-17 11:52N 38°15' W 122°17'2 4.5
2017-Oct-17 11:30N 38°14' W 122°18'2 4.1
2017-Oct-17 11:00N 38°12' W 122°19'2 3.7
2017-Oct-17 10:30N 38°10' W 122°18'3 4.9
2017-Oct-17 09:59N 38°07' W 122°17'1 1.9
2017-Oct-17 09:25N 38°06' W 122°16'1 1.5
2017-Oct-17 08:59N 38°06' W 122°16'2 4.4
2017-Oct-17 08:30N 38°04' W 122°16'2 3.1
2017-Oct-17 08:00N 38°05' W 122°15'3 5.4
2017-Oct-17 07:30N 38°07' W 122°17'3 5.4
2017-Oct-17 07:00N 38°10' W 122°18'2 4.4
2017-Oct-17 06:30N 38°12' W 122°19'4 0.2
2017-Oct-16 16:04N 38°15' W 122°17'0 1.2
2017-Oct-16 16:00N 38°15' W 122°17'0 0.0
2017-Oct-16 15:18N 38°15' W 122°17'0 0.0
2017-Oct-16 14:43N 38°15' W 122°17'0 0.0
2017-Oct-16 13:27N 38°15' W 122°17'0 0.0
2017-Oct-16 12:26N 38°15' W 122°17'0 0.0
2017-Oct-16 11:53N 38°15' W 122°17'0 0.0
2017-Oct-16 11:30N 38°15' W 122°17'0 0.0
2017-Oct-16 11:00N 38°15' W 122°17'0 0.0
2017-Oct-16 10:30N 38°15' W 122°17'0 0.0
2017-Oct-16 10:00N 38°15' W 122°17'0 0.0
2017-Oct-16 09:27N 38°15' W 122°17'0 0.0
2017-Oct-16 09:00N 38°15' W 122°17'0 0.0
2017-Oct-16 08:29N 38°15' W 122°17'0 0.0
2017-Oct-16 08:00N 38°15' W 122°17'0 0.0
2017-Oct-16 07:30N 38°15' W 122°17'0 0.0
2017-Oct-16 06:58N 38°15' W 122°17'0 0.0
2017-Oct-16 06:30N 38°15' W 122°17'0 0.0
2017-Oct-16 05:59N 38°15' W 122°17'0 0.0
2017-Oct-16 05:30N 38°15' W 122°17'0 0.0
2017-Oct-16 04:59N 38°15' W 122°17'0 0.0
2017-Oct-16 04:30N 38°15' W 122°17'0 0.0
2017-Oct-16 03:59N 38°15' W 122°17'0 0.0
2017-Oct-16 03:29N 38°15' W 122°17'0 0.0
2017-Oct-16 03:00N 38°15' W 122°17'0 0.0
2017-Oct-16 01:44N 38°15' W 122°17'1 3.1
2017-Oct-16 01:20N 38°14' W 122°17'1 3.9
2017-Oct-16 01:00N 38°13' W 122°19'2 3.5
2017-Oct-16 00:24N 38°11' W 122°19'2 4.7
2017-Oct-16 00:00N 38°10' W 122°18'3 5.3
2017-Oct-15 23:28N 38°07' W 122°17'1 1.7
2017-Oct-15 22:53N 38°06' W 122°16'3 8.9
2017-Oct-15 22:30N 38°09' W 122°18'4 6.1
2017-Oct-15 21:52N 38°13' W 122°19'3 1.9
2017-Oct-15 20:29N 38°15' W 122°17'0 0.0
2017-Oct-15 19:05N 38°15' W 122°17'0 0.0
2017-Oct-15 18:47N 38°15' W 122°17'0 0.0
2017-Oct-15 18:27N 38°15' W 122°17'0 0.0
2017-Oct-15 17:58N 38°15' W 122°17'0 0.0
2017-Oct-15 17:25N 38°15' W 122°17'0 0.0
2017-Oct-15 17:00N 38°15' W 122°17'0 0.0
2017-Oct-15 16:30N 38°15' W 122°17'0 0.0
2017-Oct-15 16:00N 38°15' W 122°17'0 0.0
2017-Oct-15 15:30N 38°15' W 122°17'0 0.0
2017-Oct-15 15:00N 38°15' W 122°17'0 0.0
2017-Oct-15 13:59N 38°15' W 122°17'0 0.0
2017-Oct-15 13:29N 38°15' W 122°17'0 0.0
2017-Oct-15 12:59N 38°15' W 122°17'0 0.0
2017-Oct-15 12:30N 38°15' W 122°17'0 0.0
2017-Oct-15 12:00N 38°15' W 122°17'0 0.0
2017-Oct-15 11:30N 38°15' W 122°17'0 0.0
2017-Oct-15 11:00N 38°15' W 122°17'0 0.0
2017-Oct-15 10:30N 38°15' W 122°17'0 0.0
2017-Oct-15 10:00N 38°15' W 122°17'0 0.0
2017-Oct-15 09:30N 38°15' W 122°17'0 0.0
2017-Oct-15 09:00N 38°15' W 122°17'0 0.0
2017-Oct-15 08:30N 38°15' W 122°17'0 0.0
2017-Oct-15 08:00N 38°15' W 122°17'0 0.0
2017-Oct-15 07:30N 38°15' W 122°17'0 0.0
2017-Oct-15 07:00N 38°15' W 122°17'0 0.0
2017-Oct-15 06:30N 38°15' W 122°17'0 0.0
2017-Oct-15 06:00N 38°15' W 122°17'0 0.0
2017-Oct-15 05:29N 38°15' W 122°17'0 0.0
2017-Oct-15 05:00N 38°15' W 122°17'0 0.0
2017-Oct-15 04:30N 38°15' W 122°17'0 0.0
2017-Oct-15 04:00N 38°15' W 122°17'0 0.0
2017-Oct-15 03:30N 38°15' W 122°17'0 0.0
2017-Oct-15 02:57N 38°15' W 122°17'0 0.0
2017-Oct-15 02:30N 38°15' W 122°17'0 0.0
2017-Oct-15 02:00N 38°15' W 122°17'0 0.0
2017-Oct-15 01:29N 38°15' W 122°17'0 0.0
2017-Oct-15 01:00N 38°15' W 122°17'0 0.0
2017-Oct-15 00:24N 38°15' W 122°17'1 3.6
2017-Oct-15 00:00N 38°14' W 122°18'2 3.8
2017-Oct-14 23:30N 38°12' W 122°19'2 4.1
2017-Oct-14 23:00N 38°10' W 122°18'3 5.4
2017-Oct-14 22:25N 38°07' W 122°17'2 5.4
2017-Oct-14 21:59N 38°05' W 122°15'2 4.7
2017-Oct-14 21:29N 38°04' W 122°13'6 0.6
2017-Oct-14 11:16N 38°03' W 122°05'1 5.3
2017-Oct-14 10:59N 38°02' W 122°07'2 5.1
2017-Oct-14 10:30N 38°03' W 122°10'2 4.7
2017-Oct-14 10:00N 38°04' W 122°13'2 4.5
2017-Oct-14 09:30N 38°05' W 122°15'1 1.8
2017-Oct-14 09:00N 38°06' W 122°16'0 0.5
2017-Oct-14 08:30N 38°06' W 122°16'2 3.5
2017-Oct-14 08:00N 38°04' W 122°16'2 4.3
2017-Oct-14 07:30N 38°03' W 122°18'3 5.1
2017-Oct-14 07:00N 38°02' W 122°21'3 5.1
2017-Oct-14 06:30N 38°00' W 122°24'3 5.1
2017-Oct-14 05:56N 37°58' W 122°26'2 5.2
2017-Oct-14 05:30N 37°56' W 122°26'3 6.0
2017-Oct-14 05:00N 37°53' W 122°24'4 7.4
2017-Oct-14 04:30N 37°50' W 122°22'3 5.3
2017-Oct-14 04:00N 37°48' W 122°20'2 3.0
2017-Oct-14 03:30N 37°49' W 122°19'0 0.0
2017-Oct-14 03:00N 37°49' W 122°19'1 1.0
2017-Oct-14 02:30N 37°49' W 122°19'1 2.3
2017-Oct-14 02:00N 37°48' W 122°20'0 0.0
2017-Oct-14 01:30N 37°48' W 122°20'0 0.0
2017-Oct-14 01:01N 37°48' W 122°20'0 0.0
2017-Oct-14 00:31N 37°48' W 122°20'0 0.0
2017-Oct-14 00:00N 37°48' W 122°20'0 0.0
2017-Oct-13 23:30N 37°48' W 122°20'0 0.1
2017-Oct-13 23:00N 37°48' W 122°20'0 0.0
2017-Oct-13 22:30N 37°48' W 122°20'0 0.0
2017-Oct-13 22:00N 37°48' W 122°20'0 0.0
2017-Oct-13 21:30N 37°48' W 122°20'1 1.2
2017-Oct-13 21:00N 37°48' W 122°20'2 3.6
2017-Oct-13 20:30N 37°49' W 122°19'0 0.1
2017-Oct-13 20:00N 37°49' W 122°18'2 4.1
2017-Oct-13 19:30N 37°49' W 122°21'1 2.2
2017-Oct-13 19:00N 37°50' W 122°21'0 0.0
2017-Oct-13 18:30N 37°50' W 122°21'0 0.0
2017-Oct-13 18:00N 37°50' W 122°21'0 0.1
2017-Oct-13 17:30N 37°50' W 122°21'0 0.0
2017-Oct-13 17:00N 37°50' W 122°21'0 0.0
2017-Oct-13 16:30N 37°50' W 122°21'0 0.0
2017-Oct-13 16:00N 37°50' W 122°21'0 0.1
2017-Oct-13 15:30N 37°50' W 122°21'0 0.0
2017-Oct-13 15:01N 37°50' W 122°21'0 0.0
2017-Oct-13 14:30N 37°50' W 122°21'0 0.1
2017-Oct-13 14:00N 37°50' W 122°21'0 0.0
2017-Oct-13 13:30N 37°50' W 122°21'0 0.0
2017-Oct-13 13:00N 37°50' W 122°21'0 0.0
2017-Oct-13 12:30N 37°50' W 122°21'0 0.1
2017-Oct-13 12:00N 37°50' W 122°21'0 0.0
2017-Oct-13 11:30N 37°50' W 122°21'0 0.1
2017-Oct-13 11:00N 37°50' W 122°21'0 0.0
2017-Oct-13 10:30N 37°50' W 122°21'0 0.0
2017-Oct-13 10:00N 37°50' W 122°21'0 0.0
2017-Oct-13 09:30N 37°50' W 122°21'0 0.1
2017-Oct-13 09:00N 37°50' W 122°21'0 0.1
2017-Oct-13 08:30N 37°50' W 122°21'0 0.2
2017-Oct-13 08:01N 37°50' W 122°21'0 0.0
2017-Oct-13 07:30N 37°50' W 122°21'0 0.0
2017-Oct-13 07:01N 37°50' W 122°21'0 0.0
2017-Oct-13 06:31N 37°50' W 122°21'0 0.0
2017-Oct-13 06:00N 37°50' W 122°21'0 0.1
2017-Oct-13 05:30N 37°50' W 122°21'0 0.1
2017-Oct-13 05:00N 37°50' W 122°21'0 0.1
2017-Oct-13 04:30N 37°50' W 122°21'0 0.0
2017-Oct-13 04:00N 37°50' W 122°21'0 0.0
2017-Oct-13 03:30N 37°50' W 122°21'0 0.5
2017-Oct-13 03:01N 37°50' W 122°21'3 5.5
2017-Oct-13 02:30N 37°47' W 122°20'1 1.1
2017-Oct-13 02:00N 37°47' W 122°20'3 6.6
2017-Oct-13 01:31N 37°50' W 122°21'0 0.4
2017-Oct-13 01:00N 37°50' W 122°21'0 0.1
2017-Oct-13 00:30N 37°50' W 122°21'0 0.0
2017-Oct-13 00:00N 37°50' W 122°21'0 0.0
2017-Oct-12 23:30N 37°50' W 122°21'0 0.0
2017-Oct-12 23:00N 37°50' W 122°21'0 0.0
2017-Oct-12 22:30N 37°50' W 122°21'0 0.0
2017-Oct-12 22:00N 37°50' W 122°21'0 0.0
2017-Oct-12 21:30N 37°50' W 122°21'0 0.0
2017-Oct-12 21:00N 37°50' W 122°21'0 0.0
2017-Oct-12 20:30N 37°50' W 122°21'0 0.0
2017-Oct-12 20:00N 37°50' W 122°21'0 0.0
2017-Oct-12 19:30N 37°50' W 122°21'0 0.1
2017-Oct-12 19:00N 37°50' W 122°21'0 0.1
2017-Oct-12 18:30N 37°50' W 122°21'0 0.1
2017-Oct-12 18:00N 37°50' W 122°21'0 0.0
2017-Oct-12 17:30N 37°50' W 122°21'0 0.1
2017-Oct-12 17:00N 37°50' W 122°21'0 0.6
2017-Oct-12 16:30N 37°50' W 122°21'3 5.9
2017-Oct-12 16:01N 37°47' W 122°22'0 0.8
2017-Oct-12 15:30N 37°46' W 122°22'0 0.3
2017-Oct-12 15:01N 37°46' W 122°22'0 0.2
2017-Oct-12 14:30N 37°46' W 122°21'1 2.8
2017-Oct-12 14:00N 37°46' W 122°20'1 2.1
2017-Oct-12 13:31N 37°46' W 122°21'0 0.7
2017-Oct-12 13:01N 37°46' W 122°21'0 0.0
2017-Oct-12 12:30N 37°46' W 122°21'0 0.0
2017-Oct-12 12:00N 37°46' W 122°21'1 2.9
2017-Oct-12 11:30N 37°46' W 122°20'1 1.2
2017-Oct-12 11:00N 37°46' W 122°20'1 1.8
2017-Oct-12 10:30N 37°46' W 122°21'0 0.0
2017-Oct-12 10:00N 37°46' W 122°21'0 0.1
2017-Oct-12 09:31N 37°46' W 122°21'0 0.9
2017-Oct-12 09:01N 37°46' W 122°21'1 2.1
2017-Oct-12 08:30N 37°46' W 122°20'2 3.0
2017-Oct-12 08:01N 37°46' W 122°22'0 0.1
2017-Oct-12 07:31N 37°46' W 122°22'0 0.1
2017-Oct-12 07:01N 37°46' W 122°22'0 0.0
2017-Oct-12 06:31N 37°46' W 122°22'0 0.1
2017-Oct-12 06:00N 37°46' W 122°22'1 3.0
2017-Oct-12 05:31N 37°46' W 122°20'0 0.1
2017-Oct-12 05:01N 37°46' W 122°20'0 0.0
2017-Oct-12 04:31N 37°46' W 122°20'0 0.0
2017-Oct-12 04:01N 37°46' W 122°20'0 0.0
2017-Oct-12 03:31N 37°46' W 122°20'0 0.0
2017-Oct-12 03:00N 37°46' W 122°20'0 0.0
2017-Oct-12 02:31N 37°46' W 122°20'0 0.0
2017-Oct-12 02:01N 37°46' W 122°20'0 0.1
2017-Oct-12 01:31N 37°46' W 122°20'0 0.0
2017-Oct-12 01:01N 37°46' W 122°20'0 0.1
2017-Oct-12 00:30N 37°46' W 122°20'0 0.2
2017-Oct-12 00:00N 37°46' W 122°20'0 0.0
2017-Oct-11 23:30N 37°46' W 122°20'0 0.0
2017-Oct-11 23:01N 37°46' W 122°20'0 0.1
2017-Oct-11 22:30N 37°46' W 122°20'0 0.0
2017-Oct-11 22:00N 37°46' W 122°20'3 5.6
2017-Oct-11 21:31N 37°49' W 122°19'0 1.0
2017-Oct-11 21:00N 37°49' W 122°19'3 5.6
2017-Oct-11 20:31N 37°48' W 122°22'2 3.5
2017-Oct-11 20:00N 37°49' W 122°24'0 0.8
2017-Oct-11 19:30N 37°48' W 122°24'4 7.2
2017-Oct-11 19:01N 37°49' W 122°19'1 1.1
2017-Oct-11 18:31N 37°49' W 122°19'3 6.0
2017-Oct-11 18:00N 37°48' W 122°22'1 3.0
2017-Oct-11 17:30N 37°49' W 122°24'0 0.0
2017-Oct-11 17:00N 37°49' W 122°24'6 0.4
2017-Oct-11 00:00N 37°54' W 122°22'1 3.0
2017-Oct-10 23:30N 37°54' W 122°24'3 6.9
2017-Oct-10 23:00N 37°51' W 122°22'3 5.6
2017-Oct-10 22:30N 37°49' W 122°20'1 2.4
2017-Oct-10 22:00N 37°49' W 122°19'1 3.0
2017-Oct-10 21:30N 37°48' W 122°19'3 5.4
2017-Oct-10 21:00N 37°47' W 122°16'1 1.8
2017-Oct-10 20:30N 37°47' W 122°15'3 6.1
2017-Oct-10 20:00N 37°48' W 122°18'3 5.7
2017-Oct-10 19:30N 37°50' W 122°21'0 0.0
2017-Oct-10 19:00N 37°50' W 122°21'0 0.0
2017-Oct-10 18:30N 37°50' W 122°21'0 0.0
2017-Oct-10 18:00N 37°50' W 122°21'0 0.0
2017-Oct-10 17:30N 37°50' W 122°21'0 0.1
2017-Oct-10 17:00N 37°50' W 122°21'1 2.3
2017-Oct-10 16:30N 37°50' W 122°22'3 6.3
2017-Oct-10 16:00N 37°53' W 122°24'4 7.7
2017-Oct-10 15:30N 37°57' W 122°26'4 7.7
2017-Oct-10 15:00N 38°01' W 122°26'6 5.7
2017-Oct-10 13:52N 38°07' W 122°28'2 4.8
2017-Oct-10 13:30N 38°07' W 122°31'3 5.3
2017-Oct-10 13:00N 38°09' W 122°33'2 3.9
2017-Oct-10 12:30N 38°11' W 122°33'2 3.6
2017-Oct-10 12:00N 38°12' W 122°35'2 3.3
2017-Oct-10 11:30N 38°13' W 122°36'0 0.2
2017-Oct-10 11:00N 38°13' W 122°36'0 0.0
2017-Oct-10 08:13N 38°13' W 122°36'0 0.0
2017-Oct-10 07:42N 38°13' W 122°36'0 0.0
2017-Oct-10 07:27N 38°13' W 122°36'0 0.0
2017-Oct-10 06:58N 38°13' W 122°36'0 0.0
2017-Oct-10 06:25N 38°13' W 122°36'0 0.0
2017-Oct-10 05:20N 38°13' W 122°36'0 0.0
2017-Oct-10 05:00N 38°13' W 122°36'0 0.0
2017-Oct-10 04:30N 38°13' W 122°36'0 0.0
2017-Oct-10 04:00N 38°13' W 122°36'0 0.0
2017-Oct-10 03:30N 38°13' W 122°36'0 0.0
2017-Oct-10 03:00N 38°13' W 122°36'0 0.0
2017-Oct-10 02:30N 38°13' W 122°36'0 0.0
2017-Oct-10 02:00N 38°13' W 122°36'0 0.0
2017-Oct-10 01:30N 38°13' W 122°36'0 0.0
2017-Oct-10 01:00N 38°13' W 122°36'0 0.0
2017-Oct-10 00:30N 38°13' W 122°36'0 0.0
2017-Oct-10 00:00N 38°13' W 122°36'0 0.5
2017-Oct-09 23:30N 38°13' W 122°36'1 2.9
2017-Oct-09 23:00N 38°12' W 122°35'2 3.3
2017-Oct-09 22:30N 38°12' W 122°33'2 3.6
2017-Oct-09 22:00N 38°10' W 122°32'2 4.3
2017-Oct-09 21:29N 38°08' W 122°31'3 4.1
2017-Oct-09 20:39N 38°06' W 122°27'1 4.7
2017-Oct-09 20:30N 38°06' W 122°27'2 4.5
2017-Oct-09 20:00N 38°03' W 122°26'3 5.2
2017-Oct-09 19:30N 38°01' W 122°26'2 2.8
2017-Oct-09 18:54N 37°59' W 122°27'0 0.0
2017-Oct-09 18:30N 37°59' W 122°27'0 0.0
2017-Oct-09 18:00N 37°59' W 122°27'  

Dump ship's entire track history